Time;durP1;ratioP1;P1;durP2;ratioP2;P2;SDS_P1;SDS_P2;PMS_P1;PMS_P2;Temp;Humidity;BMP_temperature;BMP_pressure;BME280_temperature;BME280_humidity;BME280_pressure;Samples;Min_cycle;Max_cycle;Signal;HPM_P1;HPM_P2
2022/08/09 00:01:31;;;;;;;3.42;3.13;;;23.60;42.50;;;;;;5050254;28;20184;-83
2022/08/09 00:03:57;;;;;;;3.75;3.35;;;23.70;43.20;;;;;;5041001;28;20184;-83
2022/08/09 00:06:24;;;;;;;5.13;3.40;;;23.60;44.60;;;;;;5034523;28;20197;-85
2022/08/09 00:08:50;;;;;;;3.83;3.03;;;23.60;44.50;;;;;;5035754;28;20232;-84
2022/08/09 00:11:17;;;;;;;4.20;3.17;;;23.60;43.40;;;;;;5039144;28;20203;-84
2022/08/09 00:13:44;;;;;;;3.30;3.10;;;23.60;41.50;;;;;;5034516;28;20216;-84
2022/08/09 00:16:10;;;;;;;3.58;3.25;;;23.60;42.90;;;;;;5040188;28;20216;-84
2022/08/09 00:18:36;;;;;;;5.28;3.10;;;23.70;43.00;;;;;;5032106;28;20206;-84
2022/08/09 00:21:06;;;;;;;3.38;3.17;;;23.80;42.30;;;;;;5038217;28;20192;-84
2022/08/09 00:23:32;;;;;;;4.78;3.47;;;23.80;43.10;;;;;;5033166;28;20177;-84
2022/08/09 00:25:58;;;;;;;4.32;3.05;;;23.70;43.70;;;;;;5030702;28;20190;-84
2022/08/09 00:28:24;;;;;;;3.30;3.03;;;23.70;44.00;;;;;;5032443;28;20227;-85
2022/08/09 00:30:50;;;;;;;3.63;3.33;;;23.60;44.70;;;;;;5038346;28;20280;-83
2022/08/09 00:33:16;;;;;;;5.47;3.35;;;23.50;45.60;;;;;;5036695;28;20201;-84
2022/08/09 00:35:42;;;;;;;3.58;3.28;;;23.40;42.60;;;;;;5034016;28;20216;-83
2022/08/09 00:38:11;;;;;;;6.97;3.53;;;23.30;45.80;;;;;;5037753;28;20295;-84
2022/08/09 00:40:41;;;;;;;3.15;2.95;;;23.20;46.00;;;;;;5033495;28;20267;-83
2022/08/09 00:43:06;;;;;;;3.97;3.35;;;23.10;46.70;;;;;;5041202;28;20207;-82
2022/08/09 00:45:32;;;;;;;3.40;3.15;;;23.00;46.90;;;;;;5041028;28;20651;-85
2022/08/09 00:47:59;;;;;;;3.50;3.30;;;22.90;47.40;;;;;;5038797;28;20564;-84
2022/08/09 00:50:25;;;;;;;3.40;3.10;;;22.90;46.30;;;;;;5031723;28;20224;-83
2022/08/09 00:52:52;;;;;;;3.58;3.28;;;23.00;47.00;;;;;;5038622;28;20193;-84
2022/08/09 00:55:18;;;;;;;4.07;3.50;;;22.90;46.90;;;;;;5038685;28;20205;-83
2022/08/09 00:57:44;;;;;;;3.30;3.00;;;23.10;46.70;;;;;;5037208;28;20248;-84
2022/08/09 01:00:11;;;;;;;3.60;3.30;;;23.10;46.40;;;;;;5036380;28;20185;-84
2022/08/09 01:02:46;;;;;;;3.53;3.28;;;23.10;46.00;;;;;;5038832;28;20717;-84
2022/08/09 01:05:32;;;;;;;3.70;3.38;;;22.90;44.20;;;;;;5038336;28;20645;-84
2022/08/09 01:08:09;;;;;;;3.33;3.05;;;22.90;46.50;;;;;;5027509;28;20192;-84
2022/08/09 01:10:41;;;;;;;3.88;3.58;;;22.70;46.40;;;;;;5034663;28;20189;-84
2022/08/09 01:13:12;;;;;;;4.05;3.10;;;22.70;45.20;;;;;;5038189;28;20199;-85
2022/08/09 01:15:44;;;;;;;3.30;3.03;;;22.50;46.20;;;;;;5033797;28;20204;-84
2022/08/09 01:18:17;;;;;;;3.40;3.17;;;22.60;47.00;;;;;;5037110;28;20201;-84
2022/08/09 01:21:13;;;;;;;3.47;3.17;;;22.70;45.90;;;;;;5040779;28;20181;-83
2022/08/09 01:23:48;;;;;;;3.45;3.15;;;22.60;47.40;;;;;;5032434;28;20203;-85
2022/08/09 01:26:42;;;;;;;4.22;3.28;;;22.60;46.90;;;;;;5044683;28;20254;-84
2022/08/09 01:29:11;;;;;;;3.20;3.00;;;22.60;47.20;;;;;;5034291;28;20224;-86
2022/08/09 01:31:37;;;;;;;3.28;3.08;;;22.70;46.10;;;;;;5035545;28;20220;-84
2022/08/09 01:34:05;;;;;;;3.20;3.00;;;22.90;45.90;;;;;;5037952;28;20201;-85
2022/08/09 01:36:33;;;;;;;3.72;3.35;;;23.00;44.10;;;;;;5034055;28;20566;-84
2022/08/09 01:39:00;;;;;;;3.55;3.22;;;23.10;43.60;;;;;;5032615;28;20284;-85
2022/08/09 01:41:30;;;;;;;3.20;3.00;;;23.20;42.60;;;;;;5032983;28;20686;-85
2022/08/09 01:44:01;;;;;;;5.18;3.10;;;23.10;40.80;;;;;;5037117;28;20607;-83
2022/08/09 01:46:37;;;;;;;3.38;3.08;;;23.10;41.60;;;;;;5035220;28;20200;-85
2022/08/09 01:49:11;;;;;;;3.20;3.00;;;23.20;41.30;;;;;;5031439;28;20208;-84
2022/08/09 01:51:40;;;;;;;3.80;3.00;;;23.00;40.30;;;;;;5035867;28;20266;-84
2022/08/09 01:54:07;;;;;;;3.40;3.20;;;23.00;40.30;;;;;;5027569;28;20189;-83
2022/08/09 01:56:35;;;;;;;3.60;3.30;;;23.00;40.10;;;;;;5038179;28;20212;-83
2022/08/09 01:59:08;;;;;;;3.40;3.10;;;23.10;39.40;;;;;;5029660;28;20209;-85
2022/08/09 02:01:36;;;;;;;3.60;3.30;;;23.20;40.90;;;;;;5033347;28;20601;-85
2022/08/09 02:04:03;;;;;;;3.50;3.30;;;23.30;41.70;;;;;;5028940;28;20630;-85
2022/08/09 02:09:16;;;;;;;3.38;3.17;;;23.40;40.20;;;;;;5028336;28;20216;-84
2022/08/09 02:11:41;;;;;;;3.08;2.88;;;23.30;39.40;;;;;;5034728;28;20207;-85
2022/08/09 02:14:09;;;;;;;3.88;3.00;;;23.30;40.80;;;;;;5028708;28;20676;-86
2022/08/09 02:16:37;;;;;;;5.20;3.35;;;23.30;40.90;;;;;;5033417;28;20299;-83
2022/08/09 02:19:03;;;;;;;8.55;3.38;;;23.30;39.80;;;;;;5027415;28;20201;-84
2022/08/09 02:21:38;;;;;;;6.78;3.40;;;23.10;39.40;;;;;;5030833;28;20188;-85
2022/08/09 02:24:07;;;;;;;3.40;3.17;;;23.10;40.90;;;;;;5045134;28;20219;-81
2022/08/09 02:26:35;;;;;;;4.95;3.03;;;23.00;39.40;;;;;;5045755;28;20208;-85
2022/08/09 02:29:19;;;;;;;5.68;3.00;;;22.90;40.40;;;;;;5033836;28;20208;-84
2022/08/09 02:31:46;;;;;;;3.50;3.20;;;22.90;40.90;;;;;;5034717;28;20205;-84
2022/08/09 02:34:22;;;;;;;3.00;2.80;;;22.90;40.20;;;;;;5034929;28;20189;-85
2022/08/09 02:36:52;;;;;;;3.20;3.00;;;23.00;40.40;;;;;;5033714;28;20189;-86
2022/08/09 02:39:22;;;;;;;3.97;3.15;;;23.00;39.90;;;;;;5034023;28;20254;-85
2022/08/09 02:41:54;;;;;;;3.33;3.13;;;23.00;40.00;;;;;;5038860;28;20192;-85
2022/08/09 02:44:26;;;;;;;3.63;3.17;;;23.10;39.90;;;;;;5031282;28;20622;-85
2022/08/09 02:46:56;;;;;;;3.08;2.88;;;23.10;40.40;;;;;;5039987;28;20244;-85
2022/08/09 02:49:22;;;;;;;4.75;3.00;;;23.20;40.70;;;;;;5031490;28;20221;-86
2022/08/09 02:51:55;;;;;;;3.30;3.03;;;23.20;40.10;;;;;;5038266;28;20271;-83
2022/08/09 02:54:22;;;;;;;3.05;2.85;;;23.20;40.90;;;;;;5036096;28;20269;-84
2022/08/09 02:56:51;;;;;;;3.30;3.10;;;23.20;41.50;;;;;;5034300;28;20196;-85
2022/08/09 02:59:19;;;;;;;3.33;3.05;;;23.20;41.30;;;;;;5029996;28;20473;-85
2022/08/09 03:01:46;;;;;;;3.33;3.13;;;23.10;41.80;;;;;;5035952;28;20238;-85
2022/08/09 03:04:13;;;;;;;4.05;3.20;;;23.10;43.00;;;;;;5037272;28;20182;-83
2022/08/09 03:06:41;;;;;;;3.75;3.47;;;22.90;43.50;;;;;;5034059;28;20278;-84
2022/08/09 03:09:08;;;;;;;3.20;3.00;;;22.90;43.20;;;;;;5033685;28;20211;-85
2022/08/09 03:11:35;;;;;;;3.13;2.92;;;22.90;43.60;;;;;;5035067;28;20197;-84
2022/08/09 03:14:01;;;;;;;3.75;3.22;;;22.90;43.50;;;;;;5039797;28;20225;-83
2022/08/09 03:16:28;;;;;;;3.42;3.22;;;22.90;44.00;;;;;;5035994;28;20229;-84
2022/08/09 03:18:54;;;;;;;3.40;3.20;;;22.70;44.80;;;;;;5037799;28;20197;-83
2022/08/09 03:21:22;;;;;;;4.47;3.10;;;22.60;44.70;;;;;;5037853;28;20192;-84
2022/08/09 03:23:48;;;;;;;3.55;3.22;;;22.50;45.20;;;;;;5034257;28;20263;-84
2022/08/09 03:26:19;;;;;;;4.20;3.28;;;22.50;45.90;;;;;;5028677;28;20199;-84
2022/08/09 03:28:47;;;;;;;6.38;3.35;;;22.40;45.70;;;;;;5037855;28;20518;-84
2022/08/09 03:31:14;;;;;;;3.47;3.25;;;22.40;45.50;;;;;;5036285;28;20186;-83
2022/08/09 03:33:41;;;;;;;3.70;3.40;;;22.40;45.30;;;;;;5028829;28;20200;-85
2022/08/09 03:36:09;;;;;;;4.63;3.05;;;22.40;45.50;;;;;;5033119;28;20217;-85
2022/08/09 03:38:40;;;;;;;3.25;3.05;;;22.30;46.40;;;;;;5028761;28;20625;-86
2022/08/09 03:41:05;;;;;;;3.53;3.20;;;22.10;46.90;;;;;;5033412;28;20200;-84
2022/08/09 03:43:31;;;;;;;5.32;2.97;;;21.70;48.10;;;;;;5039547;28;20676;-83
2022/08/09 03:45:57;;;;;;;3.28;3.03;;;21.60;48.90;;;;;;5041269;28;20260;-84
2022/08/09 03:48:24;;;;;;;3.63;2.90;;;21.60;48.80;;;;;;5029805;28;20263;-83
2022/08/09 03:50:53;;;;;;;4.65;2.95;;;21.60;47.90;;;;;;5031792;28;20682;-84
2022/08/09 03:53:20;;;;;;;3.00;2.80;;;21.70;47.80;;;;;;5042753;28;20231;-84
2022/08/09 03:55:46;;;;;;;3.65;3.13;;;21.70;47.40;;;;;;5038629;28;20230;-84
2022/08/09 03:58:12;;;;;;;3.40;3.10;;;21.40;48.00;;;;;;5038257;28;20631;-84
2022/08/09 04:00:40;;;;;;;3.38;2.85;;;21.00;49.50;;;;;;5041437;28;20283;-84
2022/08/09 04:03:07;;;;;;;3.40;3.10;;;20.90;49.80;;;;;;5033489;28;20186;-85
2022/08/09 04:05:32;;;;;;;3.80;3.40;;;20.90;50.40;;;;;;5033012;28;20195;-86
2022/08/09 04:07:58;;;;;;;3.60;2.92;;;21.00;49.80;;;;;;5034322;28;20205;-84
2022/08/09 04:10:25;;;;;;;3.58;3.28;;;21.10;49.70;;;;;;5034240;28;20186;-84
2022/08/09 04:12:52;;;;;;;3.58;3.28;;;21.10;49.70;;;;;;5042084;28;20183;-84
2022/08/09 04:15:22;;;;;;;3.80;3.15;;;21.20;49.70;;;;;;5045129;28;20222;-83
2022/08/09 04:17:48;;;;;;;3.42;3.13;;;21.30;49.70;;;;;;5048539;28;20202;-87
2022/08/09 04:20:15;;;;;;;3.55;3.33;;;21.50;49.00;;;;;;5056998;28;20247;-86
2022/08/09 04:22:41;;;;;;;4.13;3.55;;;21.50;48.10;;;;;;5046803;28;20200;-84
2022/08/09 04:25:07;;;;;;;6.03;3.75;;;21.50;48.20;;;;;;5039645;28;20188;-84
2022/08/09 04:27:39;;;;;;;5.10;3.00;;;21.60;48.70;;;;;;5038770;28;20275;-83
2022/08/09 04:30:16;;;;;;;3.50;3.20;;;21.60;48.90;;;;;;5027083;28;20223;-84
2022/08/09 04:32:41;;;;;;;3.38;3.17;;;21.60;48.90;;;;;;5032598;28;20291;-83
2022/08/09 04:35:09;;;;;;;3.80;3.40;;;21.50;47.60;;;;;;5032416;28;20731;-83
2022/08/09 04:37:36;;;;;;;4.07;3.20;;;21.30;48.80;;;;;;5031216;28;20192;-84
2022/08/09 04:40:02;;;;;;;3.83;3.30;;;21.30;49.40;;;;;;5030453;28;20235;-83
2022/08/09 04:42:28;;;;;;;5.05;3.33;;;21.20;49.40;;;;;;5032266;28;20187;-83
2022/08/09 04:44:58;;;;;;;4.22;3.20;;;21.30;49.20;;;;;;5030548;28;20200;-82
2022/08/09 04:47:25;;;;;;;3.60;3.30;;;21.40;47.90;;;;;;5030145;28;20181;-84
2022/08/09 04:49:51;;;;;;;4.13;3.45;;;21.10;48.30;;;;;;5031733;28;20370;-84
2022/08/09 04:52:17;;;;;;;3.72;3.42;;;21.10;48.90;;;;;;5033447;28;20196;-84
2022/08/09 04:54:43;;;;;;;3.28;2.92;;;21.10;49.40;;;;;;5033437;28;20216;-83
2022/08/09 04:57:10;;;;;;;3.70;3.20;;;21.10;48.90;;;;;;5031485;28;20180;-83
2022/08/09 04:59:36;;;;;;;3.45;3.15;;;21.10;49.00;;;;;;5029798;28;20213;-82
2022/08/09 05:02:01;;;;;;;3.78;3.47;;;21.30;48.80;;;;;;5031264;28;20187;-83
2022/08/09 05:04:27;;;;;;;4.85;3.20;;;21.40;48.30;;;;;;5030938;28;20189;-84
2022/08/09 05:06:53;;;;;;;4.22;3.70;;;21.50;48.10;;;;;;5033747;28;20733;-83
2022/08/09 05:09:20;;;;;;;4.45;3.55;;;21.60;48.10;;;;;;5034720;28;20335;-83
2022/08/09 05:11:46;;;;;;;10.55;3.88;;;21.60;48.00;;;;;;5035479;28;20191;-82
2022/08/09 05:14:12;;;;;;;3.88;3.58;;;21.70;47.70;;;;;;5046245;28;20213;-81
2022/08/09 05:16:38;;;;;;;3.38;3.17;;;21.80;47.00;;;;;;5043184;28;20237;-83
2022/08/09 05:19:03;;;;;;;4.40;3.42;;;21.70;46.50;;;;;;5031717;28;20221;-83
2022/08/09 05:21:29;;;;;;;6.88;3.72;;;21.40;46.90;;;;;;5031947;28;20644;-84
2022/08/09 05:23:55;;;;;;;4.65;3.38;;;21.40;47.20;;;;;;5030239;28;20197;-83
2022/08/09 05:26:21;;;;;;;5.63;3.75;;;21.40;47.30;;;;;;5031206;28;20199;-84
2022/08/09 05:28:46;;;;;;;4.35;3.75;;;21.40;47.20;;;;;;5031622;28;20675;-84
2022/08/09 05:31:12;;;;;;;5.70;3.83;;;21.40;46.90;;;;;;5031845;28;20191;-84
2022/08/09 05:33:38;;;;;;;3.67;3.38;;;21.50;47.20;;;;;;5030989;28;20200;-84
2022/08/09 05:36:04;;;;;;;4.93;3.75;;;21.40;47.40;;;;;;5029576;28;20216;-84
2022/08/09 05:38:30;;;;;;;5.45;3.72;;;21.40;47.00;;;;;;5034648;28;20609;-84
2022/08/09 05:40:56;;;;;;;4.32;3.92;;;21.30;47.20;;;;;;5032862;28;20198;-84
2022/08/09 05:43:22;;;;;;;5.40;4.22;;;21.10;47.80;;;;;;5034877;28;20179;-84
2022/08/09 05:45:48;;;;;;;5.35;3.90;;;21.10;48.20;;;;;;5043800;28;20225;-84
2022/08/09 05:48:14;;;;;;;3.72;3.42;;;21.10;48.10;;;;;;5030758;28;20242;-83
2022/08/09 05:50:43;;;;;;;4.15;3.85;;;21.10;48.40;;;;;;5031969;28;20202;-84
2022/08/09 05:53:10;;;;;;;4.50;4.20;;;21.20;48.20;;;;;;5034179;28;20212;-84
2022/08/09 05:55:35;;;;;;;4.20;3.90;;;21.20;48.10;;;;;;5032270;28;20218;-84
2022/08/09 05:58:01;;;;;;;5.30;3.97;;;21.10;48.00;;;;;;5031647;28;20360;-83
2022/08/09 06:00:29;;;;;;;4.22;3.90;;;21.10;48.20;;;;;;5031942;28;20225;-84
2022/08/09 06:02:56;;;;;;;4.30;3.90;;;21.20;48.10;;;;;;5030981;28;20202;-84
2022/08/09 06:05:23;;;;;;;4.47;4.00;;;21.10;48.30;;;;;;5028076;28;20187;-84
2022/08/09 06:07:48;;;;;;;6.22;4.13;;;21.20;48.20;;;;;;5030654;28;20190;-83
2022/08/09 06:10:14;;;;;;;4.25;3.92;;;21.20;48.10;;;;;;5029790;28;20283;-83
2022/08/09 06:12:41;;;;;;;5.00;4.13;;;21.20;47.90;;;;;;5033573;28;20524;-83
2022/08/09 06:15:07;;;;;;;4.53;4.13;;;21.20;48.20;;;;;;5033895;28;20233;-84
2022/08/09 06:17:33;;;;;;;4.65;3.95;;;21.20;48.50;;;;;;5034529;28;20188;-85
2022/08/09 06:19:59;;;;;;;4.55;4.15;;;21.10;48.80;;;;;;5033922;28;20216;-85
2022/08/09 06:22:24;;;;;;;5.82;4.20;;;21.20;49.00;;;;;;5030563;28;20263;-84
2022/08/09 06:24:50;;;;;;;4.40;4.00;;;21.30;48.80;;;;;;5033198;28;20490;-83
2022/08/09 06:27:16;;;;;;;4.63;4.18;;;21.30;48.10;;;;;;5026671;28;20195;-83
2022/08/09 06:29:42;;;;;;;4.32;3.92;;;21.40;47.70;;;;;;5029884;28;20234;-82
2022/08/09 06:32:08;;;;;;;4.07;3.78;;;21.50;47.20;;;;;;5035669;28;20178;-84
2022/08/09 06:34:34;;;;;;;7.28;4.30;;;21.50;47.10;;;;;;5034480;28;20623;-85
2022/08/09 06:37:00;;;;;;;4.55;4.00;;;21.60;46.90;;;;;;5036089;28;20198;-84
2022/08/09 06:39:29;;;;;;;5.15;3.90;;;21.50;46.40;;;;;;5029574;28;20612;-83
2022/08/09 06:41:55;;;;;;;4.30;3.90;;;21.50;46.10;;;;;;5031453;28;20272;-83
2022/08/09 06:44:21;;;;;;;6.32;3.67;;;21.70;46.40;;;;;;5039383;28;20222;-84
2022/08/09 06:46:47;;;;;;;3.72;3.42;;;21.80;45.20;;;;;;5037696;28;20204;-83
2022/08/09 06:49:13;;;;;;;3.75;3.42;;;21.80;43.80;;;;;;5038971;28;20230;-83
2022/08/09 06:51:39;;;;;;;4.25;3.85;;;21.90;44.00;;;;;;5033891;28;20235;-82
2022/08/09 06:54:04;;;;;;;4.07;3.53;;;22.00;43.80;;;;;;5030238;28;20294;-81
2022/08/09 06:56:30;;;;;;;3.95;3.40;;;22.00;42.80;;;;;;5038494;28;20380;-84
2022/08/09 06:58:56;;;;;;;4.18;3.78;;;22.10;42.00;;;;;;5036164;28;20240;-83
2022/08/09 07:01:22;;;;;;;3.97;3.67;;;22.20;41.80;;;;;;5035699;28;20189;-84
2022/08/09 07:03:47;;;;;;;4.28;3.75;;;22.20;41.50;;;;;;5033920;28;20736;-84
2022/08/09 07:06:13;;;;;;;4.32;3.72;;;22.30;42.50;;;;;;5024984;28;20185;-82
2022/08/09 07:08:39;;;;;;;5.78;3.58;;;22.50;41.60;;;;;;5039030;28;20292;-84
2022/08/09 07:11:04;;;;;;;4.85;3.58;;;22.50;41.80;;;;;;5040940;28;20177;-83
2022/08/09 07:13:30;;;;;;;5.65;3.70;;;22.50;41.80;;;;;;5035628;28;20557;-84
2022/08/09 07:15:57;;;;;;;4.28;3.75;;;22.60;41.60;;;;;;5038918;28;20252;-83
2022/08/09 07:18:22;;;;;;;4.82;3.78;;;22.70;41.60;;;;;;5030724;28;20215;-83
2022/08/09 07:20:49;;;;;;;3.88;3.58;;;22.80;41.30;;;;;;5038491;28;20205;-84
2022/08/09 07:23:16;;;;;;;4.15;3.70;;;22.80;40.80;;;;;;5036296;28;20185;-84
2022/08/09 07:25:42;;;;;;;5.45;3.58;;;22.80;40.60;;;;;;5044740;28;20189;-83
2022/08/09 07:28:08;;;;;;;5.15;3.83;;;22.90;41.10;;;;;;5041840;28;20648;-83
2022/08/09 07:30:34;;;;;;;3.85;3.40;;;22.90;40.80;;;;;;5037184;28;20195;-83
2022/08/09 07:33:00;;;;;;;3.92;3.63;;;23.00;40.10;;;;;;5033535;28;20452;-82
2022/08/09 07:35:25;;;;;;;5.28;3.60;;;23.20;39.80;;;;;;5041356;28;20286;-83
2022/08/09 07:37:51;;;;;;;6.45;3.60;;;23.30;39.60;;;;;;5034453;28;20318;-84
2022/08/09 07:40:18;;;;;;;5.03;3.50;;;23.50;40.00;;;;;;5040037;28;20327;-84
2022/08/09 07:42:53;;;;;;;5.47;3.65;;;23.70;39.30;;;;;;5041223;28;20185;-84
2022/08/09 07:45:25;;;;;;;3.60;3.30;;;23.80;38.60;;;;;;5043451;28;20204;-82
2022/08/09 07:47:54;;;;;;;3.60;3.35;;;23.60;38.50;;;;;;5043736;28;20193;-83
2022/08/09 07:50:23;;;;;;;3.75;3.40;;;23.60;38.30;;;;;;5032393;28;20209;-82
2022/08/09 07:52:49;;;;;;;4.00;3.60;;;23.70;38.30;;;;;;5043917;28;20200;-83
2022/08/09 07:55:15;;;;;;;4.15;3.75;;;23.70;38.40;;;;;;5045382;28;20228;-82
2022/08/09 07:57:41;;;;;;;4.03;3.72;;;23.90;38.90;;;;;;5041278;28;20209;-82
2022/08/09 08:00:08;;;;;;;5.53;3.50;;;24.10;38.00;;;;;;5048052;28;20258;-82
2022/08/09 08:02:34;;;;;;;4.03;3.60;;;24.10;37.60;;;;;;5049132;28;20196;-83
2022/08/09 08:05:00;;;;;;;4.63;3.78;;;24.10;38.00;;;;;;5047105;28;20323;-83
2022/08/09 08:07:26;;;;;;;3.50;3.30;;;24.10;38.10;;;;;;5041571;28;20541;-84
2022/08/09 08:09:55;;;;;;;3.97;3.63;;;24.10;37.50;;;;;;5038442;28;20205;-83
2022/08/09 08:12:20;;;;;;;3.78;3.50;;;24.20;37.70;;;;;;5035725;28;20224;-83
2022/08/09 08:14:46;;;;;;;3.75;3.40;;;24.50;37.40;;;;;;5040611;28;20225;-83
2022/08/09 08:17:12;;;;;;;4.15;3.88;;;24.60;37.10;;;;;;5038492;28;20251;-82
2022/08/09 08:19:38;;;;;;;4.72;3.42;;;24.90;36.60;;;;;;5032984;28;20209;-84
2022/08/09 08:22:03;;;;;;;4.38;3.97;;;24.90;36.60;;;;;;5036400;28;20181;-83
2022/08/09 08:24:30;;;;;;;4.00;3.70;;;25.10;36.30;;;;;;5043704;28;20242;-84
2022/08/09 08:26:56;;;;;;;4.93;3.28;;;25.10;36.10;;;;;;5040391;28;20192;-81
2022/08/09 08:29:23;;;;;;;3.67;3.38;;;25.30;35.60;;;;;;5044058;28;20240;-83
2022/08/09 08:31:48;;;;;;;4.05;3.75;;;25.40;35.50;;;;;;5041382;28;20221;-82
2022/08/09 08:34:14;;;;;;;4.57;3.85;;;25.60;35.60;;;;;;5042915;28;20215;-84
2022/08/09 08:36:40;;;;;;;4.13;3.72;;;25.60;35.40;;;;;;5031864;28;20217;-84
2022/08/09 08:39:05;;;;;;;4.85;4.22;;;25.70;35.30;;;;;;5033139;28;20750;-84
2022/08/09 08:41:31;;;;;;;4.10;3.60;;;25.70;35.10;;;;;;5029192;28;20510;-84
2022/08/09 08:43:58;;;;;;;4.85;3.65;;;25.80;35.30;;;;;;5034545;28;20181;-85
2022/08/09 08:46:34;;;;;;;3.88;3.45;;;26.00;35.70;;;;;;5028938;28;20201;-84
2022/08/09 08:49:00;;;;;;;4.65;3.78;;;26.10;35.20;;;;;;5029954;28;20200;-84
2022/08/09 08:51:26;;;;;;;4.07;3.72;;;26.20;35.20;;;;;;5032929;28;20355;-83
2022/08/09 08:53:52;;;;;;;4.30;3.88;;;26.30;35.00;;;;;;5032927;28;20188;-81
2022/08/09 08:56:20;;;;;;;4.40;3.90;;;26.40;34.50;;;;;;5035174;28;20295;-83
2022/08/09 08:58:46;;;;;;;3.90;3.60;;;26.60;34.30;;;;;;5037377;28;20284;-83
2022/08/09 09:01:14;;;;;;;3.90;3.50;;;26.80;34.00;;;;;;5031953;28;20200;-83
2022/08/09 09:03:41;;;;;;;3.88;3.42;;;27.00;34.30;;;;;;5033478;28;20185;-82
2022/08/09 09:06:12;;;;;;;5.00;4.07;;;27.00;34.00;;;;;;5040748;28;20728;-83
2022/08/09 09:08:40;;;;;;;3.97;3.67;;;27.10;33.90;;;;;;5038142;28;20209;-84
2022/08/09 09:11:06;;;;;;;5.60;3.97;;;27.30;33.80;;;;;;5034186;28;20333;-84
2022/08/09 09:13:36;;;;;;;4.20;3.60;;;27.30;33.70;;;;;;5039717;28;20378;-84
2022/08/09 09:16:02;;;;;;;4.45;4.05;;;27.30;33.40;;;;;;5032392;28;20262;-84
2022/08/09 09:18:27;;;;;;;6.00;3.90;;;27.40;33.90;;;;;;5029637;28;20212;-84
2022/08/09 09:20:53;;;;;;;5.30;3.97;;;27.70;32.40;;;;;;5030813;28;20264;-85
2022/08/09 09:23:43;;;;;;;5.60;4.07;;;27.80;32.00;;;;;;5038715;28;20193;-84
2022/08/09 09:26:10;;;;;;;4.50;3.95;;;28.00;32.10;;;;;;5027862;28;20189;-84
2022/08/09 09:28:36;;;;;;;3.70;3.50;;;28.10;32.30;;;;;;5034825;28;20213;-84
2022/08/09 09:31:04;;;;;;;4.72;4.30;;;28.20;32.50;;;;;;5034716;28;20189;-84
2022/08/09 09:33:33;;;;;;;4.30;4.00;;;28.30;31.90;;;;;;5031940;28;20184;-85
2022/08/09 09:36:05;;;;;;;4.68;4.15;;;28.50;31.50;;;;;;5032240;28;20538;-82
2022/08/09 09:38:44;;;;;;;7.88;4.30;;;28.60;31.00;;;;;;5029096;28;20681;-84
2022/08/09 09:41:22;;;;;;;3.97;3.70;;;28.70;30.60;;;;;;5028644;28;20173;-84
2022/08/09 09:43:49;;;;;;;4.10;3.70;;;28.70;31.00;;;;;;5030438;28;20261;-84
2022/08/09 09:46:15;;;;;;;5.88;3.90;;;28.80;30.70;;;;;;5029131;28;20200;-86
2022/08/09 09:49:04;;;;;;;4.53;4.13;;;29.10;30.10;;;;;;5026288;28;20212;-84
2022/08/09 09:51:31;;;;;;;4.80;3.97;;;29.40;29.80;;;;;;5031089;28;20260;-85
2022/08/09 09:54:09;;;;;;;4.50;4.20;;;29.50;29.70;;;;;;5028656;28;20196;-83
2022/08/09 09:56:40;;;;;;;4.30;4.00;;;29.60;29.40;;;;;;5032052;28;20230;-83
2022/08/09 09:59:08;;;;;;;3.90;3.70;;;29.70;29.20;;;;;;5039253;28;20362;-84
2022/08/09 10:01:34;;;;;;;4.47;4.18;;;29.80;29.00;;;;;;5034893;28;20181;-84
2022/08/09 10:04:00;;;;;;;6.72;4.45;;;29.80;28.80;;;;;;5033095;28;20414;-85
2022/08/09 10:06:29;;;;;;;4.38;3.95;;;29.90;28.70;;;;;;5034430;28;20189;-83
2022/08/09 10:09:03;;;;;;;4.38;3.97;;;29.90;28.30;;;;;;5036405;28;20220;-84
2022/08/09 10:11:30;;;;;;;4.10;3.80;;;30.20;29.10;;;;;;5034508;28;20773;-84
2022/08/09 10:13:57;;;;;;;4.13;3.85;;;29.90;28.70;;;;;;5042287;28;20731;-84
2022/08/09 10:16:30;;;;;;;4.25;3.85;;;30.10;28.70;;;;;;5032625;28;20217;-82
2022/08/09 10:19:02;;;;;;;3.90;3.70;;;30.30;27.80;;;;;;5034295;28;20216;-85
2022/08/09 10:21:28;;;;;;;4.68;4.28;;;30.60;27.50;;;;;;5037216;28;20188;-82
2022/08/09 10:23:56;;;;;;;4.38;3.97;;;30.70;27.60;;;;;;5035683;28;20231;-82
2022/08/09 10:26:23;;;;;;;4.35;3.75;;;30.80;27.60;;;;;;5033619;28;20282;-84
2022/08/09 10:28:49;;;;;;;4.32;3.95;;;31.10;26.80;;;;;;5038677;28;20213;-85
2022/08/09 10:31:16;;;;;;;4.55;4.10;;;31.00;26.20;;;;;;5031521;28;20573;-85
2022/08/09 10:33:42;;;;;;;5.35;3.60;;;31.00;26.30;;;;;;5036450;28;20196;-84
2022/08/09 10:36:10;;;;;;;5.65;4.10;;;31.20;25.70;;;;;;5029750;28;20205;-84
2022/08/09 10:38:37;;;;;;;4.65;4.15;;;31.30;26.30;;;;;;5039508;28;20268;-85
2022/08/09 10:41:03;;;;;;;4.63;3.70;;;31.30;26.30;;;;;;5031454;28;20186;-85
2022/08/09 10:43:29;;;;;;;4.57;4.13;;;31.30;26.30;;;;;;5032938;28;20401;-84
2022/08/09 10:45:59;;;;;;;4.30;4.00;;;31.50;27.20;;;;;;5046860;28;20193;-83
2022/08/09 10:48:29;;;;;;;6.97;4.65;;;31.70;26.40;;;;;;5046081;28;20197;-81
2022/08/09 10:51:20;;;;;;;4.82;4.25;;;32.00;25.90;;;;;;5035460;28;20219;-85
2022/08/09 10:54:06;;;;;;;4.50;4.10;;;32.20;25.50;;;;;;5033186;28;20182;-83
2022/08/09 10:56:35;;;;;;;4.88;4.47;;;32.40;25.40;;;;;;5036228;28;20209;-85
2022/08/09 10:59:23;;;;;;;4.97;4.68;;;32.40;25.50;;;;;;5035137;28;20202;-82
2022/08/09 11:01:49;;;;;;;4.80;4.45;;;32.60;25.20;;;;;;5036940;28;20193;-84
2022/08/09 11:04:19;;;;;;;4.40;4.10;;;32.90;25.20;;;;;;5037716;28;20221;-84
2022/08/09 11:07:06;;;;;;;4.20;4.00;;;33.10;24.60;;;;;;5033770;28;20269;-84
2022/08/09 11:09:38;;;;;;;4.53;4.10;;;33.00;24.60;;;;;;5034702;28;20221;-83
2022/08/09 11:12:22;;;;;;;4.60;4.20;;;32.80;24.60;;;;;;5037161;28;20185;-84
2022/08/09 11:14:53;;;;;;;4.65;4.28;;;33.00;24.30;;;;;;5035486;28;20192;-83
2022/08/09 11:17:19;;;;;;;4.63;4.22;;;33.50;23.40;;;;;;5033312;28;20275;-84
2022/08/09 11:19:55;;;;;;;7.80;4.30;;;33.40;23.00;;;;;;5031396;28;20233;-85
2022/08/09 11:22:39;;;;;;;4.30;3.90;;;33.30;23.20;;;;;;5032415;28;20196;-84
2022/08/09 11:25:35;;;;;;;4.78;4.05;;;33.20;23.00;;;;;;5033780;28;20216;-84
2022/08/09 11:28:28;;;;;;;4.30;3.90;;;33.10;23.00;;;;;;5035431;28;20196;-84
2022/08/09 11:30:54;;;;;;;5.70;4.20;;;33.30;23.20;;;;;;5032410;28;20177;-85
2022/08/09 11:33:19;;;;;;;4.50;4.10;;;33.90;23.10;;;;;;5036687;28;20276;-85
2022/08/09 11:35:58;;;;;;;4.72;4.43;;;34.00;23.20;;;;;;5031873;28;20215;-85
2022/08/09 11:38:30;;;;;;;4.95;4.55;;;33.80;23.10;;;;;;5048687;28;20844;-85
2022/08/09 11:40:56;;;;;;;4.53;4.30;;;33.90;22.60;;;;;;5037801;28;20228;-85
2022/08/09 11:43:25;;;;;;;4.82;4.53;;;33.70;23.00;;;;;;5030757;28;20196;-85
2022/08/09 11:46:01;;;;;;;4.80;4.40;;;33.90;23.20;;;;;;5028556;28;20192;-86
2022/08/09 11:48:31;;;;;;;4.63;4.28;;;33.90;22.80;;;;;;5029276;28;20212;-85
2022/08/09 11:51:05;;;;;;;4.90;4.60;;;33.90;22.80;;;;;;5030588;28;20216;-85
2022/08/09 11:53:35;;;;;;;4.18;3.88;;;33.70;23.20;;;;;;5031951;28;20282;-85
2022/08/09 11:56:13;;;;;;;4.50;4.20;;;33.80;22.70;;;;;;5035527;28;20216;-85
2022/08/09 11:58:41;;;;;;;4.45;4.10;;;34.50;22.10;;;;;;5037555;28;20213;-85
2022/08/09 12:01:08;;;;;;;5.32;4.57;;;34.40;22.70;;;;;;5037040;28;20432;-85
2022/08/09 12:03:35;;;;;;;4.80;4.50;;;34.60;21.90;;;;;;5036367;28;20174;-85
2022/08/09 12:06:09;;;;;;;4.97;4.60;;;34.80;22.10;;;;;;5035578;28;20189;-84
2022/08/09 12:08:35;;;;;;;4.90;4.55;;;34.90;22.20;;;;;;5034189;28;20208;-84
2022/08/09 12:11:01;;;;;;;5.10;4.75;;;34.70;22.60;;;;;;5037279;28;20254;-84
2022/08/09 12:13:33;;;;;;;5.07;4.78;;;34.80;22.50;;;;;;5037410;28;20193;-85
2022/08/09 12:16:03;;;;;;;4.93;4.57;;;35.20;22.50;;;;;;5034706;28;20221;-85
2022/08/09 12:18:30;;;;;;;5.30;4.80;;;35.40;22.50;;;;;;5038974;28;20197;-83
2022/08/09 12:20:55;;;;;;;5.72;5.40;;;35.70;22.00;;;;;;5037186;28;20188;-84
2022/08/09 12:23:21;;;;;;;5.25;5.03;;;36.10;21.90;;;;;;5035269;28;20181;-84
2022/08/09 12:25:49;;;;;;;6.63;5.53;;;36.10;21.60;;;;;;5038552;28;20311;-85
2022/08/09 12:28:18;;;;;;;6.80;5.43;;;36.10;21.60;;;;;;5037232;28;20267;-84
2022/08/09 12:30:44;;;;;;;5.13;4.72;;;35.90;21.30;;;;;;5038276;28;20212;-85
2022/08/09 12:33:11;;;;;;;5.63;5.10;;;35.80;21.10;;;;;;5039132;28;20192;-85
2022/08/09 12:35:37;;;;;;;5.20;4.90;;;35.90;21.50;;;;;;5038799;28;20237;-85
2022/08/09 12:38:24;;;;;;;5.30;4.90;;;35.80;21.60;;;;;;5044157;28;20187;-84
2022/08/09 12:40:51;;;;;;;5.10;4.80;;;35.40;22.00;;;;;;5042858;28;20180;-85
2022/08/09 12:43:23;;;;;;;5.75;5.28;;;35.90;21.70;;;;;;5046090;28;20181;-86
2022/08/09 12:45:50;;;;;;;5.47;4.95;;;36.10;21.30;;;;;;5034234;28;20212;-84
2022/08/09 12:48:16;;;;;;;5.43;4.82;;;36.30;21.50;;;;;;5035773;28;20244;-85
2022/08/09 12:50:43;;;;;;;5.05;4.65;;;35.70;21.50;;;;;;5038100;28;20204;-85
2022/08/09 12:53:32;;;;;;;5.43;4.95;;;35.50;21.80;;;;;;5037664;28;20184;-85
2022/08/09 12:56:10;;;;;;;4.57;4.18;;;35.30;22.00;;;;;;5036521;28;20205;-85
2022/08/09 12:58:37;;;;;;;7.35;5.10;;;35.90;21.40;;;;;;5039975;28;20231;-85